Muir Army Air Field (Fort Indiantown Gap) Airport
KMUI : now visible

Airfield :











YOU CAN JOIN US ON...

 
LOGIN :

Register | Disclaimer

   EN    FR    IT 

 









Legend :    VFR   Marginal VFR   IFR   Intensive IFR   Very Intensive IFR
Visi :
Ceiling :
>= 8 km
>= 3000ft
5 to 8 km
1000 to 3000 ft
1500m to 5 km
500 to 1000 ft
800 to 1500m
200 to 500 ft
< 800m
< 200 ft
Symbols :   Thunderstorms  Fog  Heavy snow  Heavy precipitations  Wind > 20 kt






- Airport Elevation : 488 ft


KMUI - Muir Army Air Field (Fort Indiantown Gap)

CURRENT METAR :
  • 270056Z 00000KT 10SM FEW060 FEW200 23/18 A2993 RMK AO2A SLP135 T02270178

EXPIRED METARs :
  • 262356Z 00000KT 10SM FEW060 FEW200 26/18 A2993 RMK AO2A SLP134 T02570178 10317 20257 53001
  • 262256Z 00000KT 10SM FEW060 FEW200 30/19 A2992 RMK AO2A SLP131 T02970194

TAF TAF KMUI
Valid from the 26 at 19:00 until the 28 at 01:00 UTC


261900Z 2619/2801 35009KT 9999 FEW060 SCT250 QNH2994INS
BECMG 2623/2624 VRB06KT 9999 SCT050 QNH2993INS TX32/2719Z TN18/2710Z LAST NO AMDS AFT 2704 NEXT 2711
KZNY FIR / North America



MET'MAP, your aeronautical weather chart ! - Copyright ORBIFLY December 2007 - Disclaimer

ORBIFLY MET'MAP TEAM :

Programming & Development : Alexandra Zaïnal
Concept & original design : Baudouin d'Aumeries
Assistance for programming : Marc-Olivier Méhu
Technical & hardware support : Manuel Goepfert

Contact : metmap@orbifly.com




SOURCES & CREDITS :

   NOAA       Earth
Advisory